PWSweather.com
Personal Weather Stations
Station Observations
KVAGLENALL
West Henrico, Glen Allen, VA 23060-6503

West HenricoGlen Allen, VA 23060-6503

Lat: 37.6554, Lon: -77.5693

Elevation: 273

Station Type: Davis Vantage Pro II

www.glenallenweather.com

High Low Average
Temperature 77.8°F25.4°C 67.4°F19.7°C 71.7°F22.1°C
Dew Point 74.6°F23.7°C 64.1°F17.8°C 69.4°F20.8°C
Winds 10.0 mph 16.1 kmh 1.0 mph 1.6 kmh 4.0 mph ENE6.4 kmh ENE
Wind Gusts 13.1 mph21.1 kmh 4.0 mph6.4 kmh 8.0 mph12.9 kmh
Humidity 96% 86% 92%
Pressure 30.11 in1019.6 mb 30.03 in1016.9 mb -
Precipitation 0.00 in0.0 mm - -
Hour Temp Dew Point Humidity Winds Wind Gusts Pressure Precip Precip Rate Daily Precip Total
12:00 AM 68.4°F20.2°C 64.1°F17.8°C 86% 1.0 mph E1.6 kmh E 8.1 mph13.0 kmh 30.11 in1019.6 mb 0.00 in0.0 mm 0.00 in0.0 mm 0.00 in0.0 mm
01:00 AM 68.0°F20.0°C 64.4°F18.0°C 88% 1.0 mph NNE1.6 kmh NNE 5.1 mph8.2 kmh 30.09 in1019.0 mb 0.00 in0.0 mm 0.00 in0.0 mm 0.00 in0.0 mm
02:00 AM 67.4°F19.7°C 64.4°F18.0°C 90% 8.0 mph NNE12.9 kmh NNE 9.1 mph14.6 kmh 30.07 in1018.3 mb 0.00 in0.0 mm 0.00 in0.0 mm 0.00 in0.0 mm
03:00 AM 67.4°F19.7°C 64.7°F18.2°C 91% 5.0 mph N8.0 kmh N 8.1 mph13.0 kmh 30.06 in1017.9 mb 0.00 in0.0 mm 0.00 in0.0 mm 0.00 in0.0 mm
04:00 AM 67.7°F19.8°C 65.3°F18.5°C 92% 1.0 mph NNE1.6 kmh NNE 6.1 mph9.8 kmh 30.06 in1017.9 mb 0.00 in0.0 mm 0.00 in0.0 mm 0.00 in0.0 mm
05:00 AM 67.9°F19.9°C 65.2°F18.4°C 91% 9.0 mph ENE14.5 kmh ENE 10.1 mph16.3 kmh 30.07 in1018.3 mb 0.00 in0.0 mm 0.00 in0.0 mm 0.00 in0.0 mm
06:00 AM 67.7°F19.8°C 65.3°F18.5°C 92% 4.0 mph NE6.4 kmh NE 7.1 mph11.4 kmh 30.08 in1018.6 mb 0.00 in0.0 mm 0.00 in0.0 mm 0.00 in0.0 mm
07:00 AM 68.3°F20.2°C 65.9°F18.8°C 92% 6.0 mph NE9.7 kmh NE 10.1 mph16.3 kmh 30.08 in1018.6 mb 0.00 in0.0 mm 0.00 in0.0 mm 0.00 in0.0 mm
08:00 AM 68.4°F20.2°C 66.3°F19.1°C 93% 9.0 mph NNE14.5 kmh NNE 13.1 mph21.1 kmh 30.08 in1018.6 mb 0.00 in0.0 mm 0.00 in0.0 mm 0.00 in0.0 mm
09:00 AM 69.1°F20.6°C 67.7°F19.8°C 95% 10.0 mph N16.1 kmh N 12.1 mph19.5 kmh 30.07 in1018.3 mb 0.02 in0.5 mm 0.00 in0.0 mm 0.02 in0.5 mm
10:00 AM 70.3°F21.3°C 69.1°F20.6°C 96% 2.0 mph NE3.2 kmh NE 4.0 mph6.4 kmh 30.08 in1018.6 mb 0.04 in1.0 mm 0.00 in0.0 mm 0.04 in1.0 mm
11:00 AM 72.1°F22.3°C 70.9°F21.6°C 96% 4.0 mph ENE6.4 kmh ENE 8.1 mph13.0 kmh 30.07 in1018.3 mb 0.01 in0.3 mm 0.00 in0.0 mm 0.04 in1.0 mm
12:00 PM 73.5°F23.1°C 72.0°F22.2°C 95% 3.0 mph NE4.8 kmh NE 11.1 mph17.9 kmh 30.05 in1017.6 mb 0.00 in0.0 mm 0.00 in0.0 mm 0.04 in1.0 mm
01:00 PM 77.8°F25.4°C 74.6°F23.7°C 90% 6.0 mph NNE9.7 kmh NNE 12.1 mph19.5 kmh 30.05 in1017.6 mb 0.00 in0.0 mm 0.00 in0.0 mm 0.04 in1.0 mm
02:00 PM 76.1°F24.5°C 73.9°F23.3°C 93% 8.0 mph SE12.9 kmh SE 10.1 mph16.3 kmh 30.05 in1017.6 mb 0.04 in1.0 mm 0.00 in0.0 mm 0.08 in2.0 mm
03:00 PM 77.8°F25.4°C 74.6°F23.7°C 90% 4.0 mph ESE6.4 kmh ESE 7.1 mph11.4 kmh 30.04 in1017.3 mb 0.00 in0.0 mm 0.00 in0.0 mm 0.08 in2.0 mm
04:00 PM 76.3°F24.6°C 72.8°F22.7°C 89% 3.0 mph ESE4.8 kmh ESE 7.1 mph11.4 kmh 30.04 in1017.3 mb 0.00 in0.0 mm 0.00 in0.0 mm 0.08 in2.0 mm
05:00 PM 76.2°F24.6°C 73.4°F23.0°C 91% 2.0 mph ENE3.2 kmh ENE 7.1 mph11.4 kmh 30.03 in1016.9 mb 0.00 in0.0 mm 0.00 in0.0 mm 0.08 in2.0 mm
06:00 PM 75.5°F24.2°C 73.0°F22.8°C 92% 4.0 mph N6.4 kmh N 8.1 mph13.0 kmh 30.04 in1017.3 mb 0.00 in0.0 mm 0.00 in0.0 mm 0.08 in2.0 mm
07:00 PM 74.3°F23.5°C 72.4°F22.4°C 94% 4.0 mph E6.4 kmh E 9.1 mph14.6 kmh 30.04 in1017.3 mb 0.00 in0.0 mm 0.00 in0.0 mm 0.08 in2.0 mm
08:00 PM 73.5°F23.1°C 72.0°F22.2°C 95% 2.0 mph ESE3.2 kmh ESE 4.0 mph6.4 kmh 30.06 in1017.9 mb 0.01 in0.3 mm 0.00 in0.0 mm 0.09 in2.3 mm
09:00 PM 73.3°F22.9°C 71.8°F22.1°C 95% 1.0 mph ESE1.6 kmh ESE 4.0 mph6.4 kmh 30.06 in1017.9 mb 0.00 in0.0 mm 0.00 in0.0 mm 0.09 in2.3 mm
10:00 PM 72.9°F22.7°C 71.4°F21.9°C 95% 3.0 mph E4.8 kmh E 4.0 mph6.4 kmh 30.05 in1017.6 mb 0.00 in0.0 mm 0.00 in0.0 mm 0.09 in2.3 mm
11:00 PM 72.0°F22.2°C 70.8°F21.6°C 96% 3.0 mph E4.8 kmh E 4.0 mph6.4 kmh 30.04 in1017.3 mb 0.00 in0.0 mm 0.00 in0.0 mm 0.09 in2.3 mm